Castlefinn — V7YK4 — position and weather

sailwx.info

Track history (hours):
 
Tides and Currents Weather Stations Pressure Air Temp Water Temp Dewpoint Dewpoint Depression Visibility Wind Speed Wind Dir Waves Ship Positions

Castlefinn

Last reported at 2014-Jun-17 13:33 UTC. Time now 2014-Aug-21 12:13 UTC.
Position N 41°29' W 070°55'.
Warning: this ship's position is months out of date.

Length 30 m; draft 1.8 m.

Type: Pleasure craft. MMSI: 538070842.

Date/timePositionNaut miles runAvg speedWind from/ knotsBaromVisibWave heightAir tempDewpointWater temp
2014-Jun-17 13:33N 41°29' W 070°55'1312.8
2014-Jun-17 12:33N 41°23' W 071°10'1312.4
2014-Jun-17 11:33N 41°19' W 071°25'1313.2
2014-Jun-17 10:34N 41°13' W 071°41'1313.5
2014-Jun-17 09:34N 41°06' W 071°56'1 1.2
2014-Jun-17 08:31N 41°04' W 071°56'0 0.0
2014-Jun-17 07:31N 41°04' W 071°56'0 0.0
2014-Jun-17 06:28N 41°04' W 071°56'0 0.0
2014-Jun-17 05:31N 41°04' W 071°56'0 0.0
2014-Jun-17 04:25N 41°04' W 071°56'0 0.0
2014-Jun-17 03:31N 41°04' W 071°56'0 0.0
2014-Jun-17 02:31N 41°04' W 071°56'0 0.0
2014-Jun-17 01:28N 41°04' W 071°56'0 0.0
2014-Jun-17 00:31N 41°04' W 071°56'0 0.0
2014-Jun-16 23:31N 41°04' W 071°56'0 0.0
2014-Jun-16 22:28N 41°04' W 071°56'0 0.0
2014-Jun-16 21:31N 41°04' W 071°56'0 0.0
2014-Jun-16 20:31N 41°04' W 071°56'0 0.0
2014-Jun-16 19:31N 41°04' W 071°56'0 0.0
2014-Jun-16 18:31N 41°04' W 071°56'0 0.0
2014-Jun-16 17:31N 41°04' W 071°56'0 0.0
2014-Jun-16 16:31N 41°04' W 071°56'0 0.0
2014-Jun-16 15:31N 41°04' W 071°56'0 0.0
2014-Jun-16 14:19N 41°04' W 071°56'0 0.0
2014-Jun-16 13:31N 41°04' W 071°56'0 0.0
2014-Jun-16 12:28N 41°04' W 071°56'0 0.0
2014-Jun-16 11:28N 41°04' W 071°56'0 0.0
2014-Jun-16 10:31N 41°04' W 071°56'0 0.0
2014-Jun-16 09:31N 41°04' W 071°56'0 0.0
2014-Jun-16 08:31N 41°04' W 071°56'0 0.0
2014-Jun-16 07:31N 41°04' W 071°56'0 0.0
2014-Jun-16 06:31N 41°04' W 071°56'0 0.0
2014-Jun-16 05:31N 41°04' W 071°56'0 0.0
2014-Jun-16 04:31N 41°04' W 071°56'0 0.0
2014-Jun-16 03:31N 41°04' W 071°56'0 0.0
2014-Jun-16 02:31N 41°04' W 071°56'0 0.0
2014-Jun-16 01:28N 41°04' W 071°56'0 0.0
2014-Jun-16 00:31N 41°04' W 071°56'0 0.0
2014-Jun-15 23:31N 41°04' W 071°56'0 0.0
2014-Jun-15 22:33N 41°04' W 071°56'4 4.4
2014-Jun-15 21:34N 40°60' W 071°56'1414.2
2014-Jun-15 20:33N 40°50' W 072°10'1414.0
2014-Jun-15 19:34N 40°41' W 072°23'1513.7
2014-Jun-15 18:29N 40°31' W 072°37'1513.6
2014-Jun-15 17:23N 40°21' W 072°52'1313.9
2014-Jun-15 16:29N 40°12' W 073°04'4912.1
2014-Jun-15 12:24N 39°39' W 073°52'  
2014-Jun-12 13:21N 37°00' W 075°54'911.5
2014-Jun-12 12:32N 36°59' W 076°05'1211.7
2014-Jun-12 11:33N 36°58' W 076°20'9 8.6
2014-Jun-12 10:33N 36°50' W 076°18'0 0.0
2014-Jun-12 08:25N 36°50' W 076°18'0 0.0
2014-Jun-12 07:08N 36°50' W 076°18'0 0.0
2014-Jun-12 06:25N 36°50' W 076°18'0 0.0
2014-Jun-12 05:31N 36°50' W 076°18'0 0.0
2014-Jun-12 03:22N 36°50' W 076°18'0 0.0
2014-Jun-12 02:26N 36°50' W 076°18'0 0.0
2014-Jun-12 01:28N 36°50' W 076°18'0 0.0
2014-Jun-12 00:31N 36°50' W 076°18'0 0.0
2014-Jun-11 23:16N 36°50' W 076°18'0 0.0
2014-Jun-11 22:25N 36°50' W 076°18'  
2014-Jun-09 12:15N 34°57' W 076°41'6 8.9
2014-Jun-09 11:33N 34°51' W 076°41'9 8.9
2014-Jun-09 10:33N 34°42' W 076°41'1 0.9
2014-Jun-09 09:33N 34°43' W 076°40'0 0.0
2014-Jun-09 08:33N 34°43' W 076°40'0 0.0
2014-Jun-09 07:33N 34°43' W 076°40'0 0.0
2014-Jun-09 06:33N 34°43' W 076°40'0 0.0
2014-Jun-09 05:33N 34°43' W 076°40'0 0.0
2014-Jun-09 04:33N 34°43' W 076°40'0 0.0
2014-Jun-09 03:33N 34°43' W 076°40'0 0.0
2014-Jun-09 02:33N 34°43' W 076°40'0 0.0
2014-Jun-09 01:33N 34°43' W 076°40'0 0.0
2014-Jun-09 00:33N 34°43' W 076°40'0 0.0
2014-Jun-08 23:33N 34°43' W 076°40'0 0.0
2014-Jun-08 22:33N 34°43' W 076°40'0 0.0
2014-Jun-08 21:33N 34°43' W 076°40'0 0.0
2014-Jun-08 20:30N 34°43' W 076°40'0 0.0
2014-Jun-08 19:33N 34°43' W 076°40'0 0.0
2014-Jun-08 18:33N 34°43' W 076°40'0 0.0
2014-Jun-08 17:33N 34°43' W 076°40'7 7.2
2014-Jun-08 16:33N 34°37' W 076°44'1912.8
2014-Jun-08 15:05N 34°28' W 077°05'813.0
2014-Jun-08 14:27N 34°24' W 077°14'  
Track history (hours):
 
Tides and Currents Weather Stations Pressure Air Temp Water Temp Dewpoint Dewpoint Depression Visibility Wind Speed Wind Dir Waves Ship Positions

Castlefinn

Last reported at 2014-Jun-17 13:33 UTC. Time now 2014-Aug-21 12:13 UTC.
Position N 41°29' W 070°55'.
Warning: this ship's position is months out of date.

Length 30 m; draft 1.8 m.

Type: Pleasure craft. MMSI: 538070842.

Date/timePositionNaut miles runAvg speedWind from/ knotsBaromVisibWave heightAir tempDewpointWater temp
2014-Jun-17 13:33N 41°29' W 070°55'1312.8
2014-Jun-17 12:33N 41°23' W 071°10'1312.4
2014-Jun-17 11:33N 41°19' W 071°25'1313.2
2014-Jun-17 10:34N 41°13' W 071°41'1313.5
2014-Jun-17 09:34N 41°06' W 071°56'1 1.2
2014-Jun-17 08:31N 41°04' W 071°56'0 0.0
2014-Jun-17 07:31N 41°04' W 071°56'0 0.0
2014-Jun-17 06:28N 41°04' W 071°56'0 0.0
2014-Jun-17 05:31N 41°04' W 071°56'0 0.0
2014-Jun-17 04:25N 41°04' W 071°56'0 0.0
2014-Jun-17 03:31N 41°04' W 071°56'0 0.0
2014-Jun-17 02:31N 41°04' W 071°56'0 0.0
2014-Jun-17 01:28N 41°04' W 071°56'0 0.0
2014-Jun-17 00:31N 41°04' W 071°56'0 0.0
2014-Jun-16 23:31N 41°04' W 071°56'0 0.0
2014-Jun-16 22:28N 41°04' W 071°56'0 0.0
2014-Jun-16 21:31N 41°04' W 071°56'0 0.0
2014-Jun-16 20:31N 41°04' W 071°56'0 0.0
2014-Jun-16 19:31N 41°04' W 071°56'0 0.0
2014-Jun-16 18:31N 41°04' W 071°56'0 0.0
2014-Jun-16 17:31N 41°04' W 071°56'0 0.0
2014-Jun-16 16:31N 41°04' W 071°56'0 0.0
2014-Jun-16 15:31N 41°04' W 071°56'0 0.0
2014-Jun-16 14:19N 41°04' W 071°56'0 0.0
2014-Jun-16 13:31N 41°04' W 071°56'0 0.0
2014-Jun-16 12:28N 41°04' W 071°56'0 0.0
2014-Jun-16 11:28N 41°04' W 071°56'0 0.0
2014-Jun-16 10:31N 41°04' W 071°56'0 0.0
2014-Jun-16 09:31N 41°04' W 071°56'0 0.0
2014-Jun-16 08:31N 41°04' W 071°56'0 0.0
2014-Jun-16 07:31N 41°04' W 071°56'0 0.0
2014-Jun-16 06:31N 41°04' W 071°56'0 0.0
2014-Jun-16 05:31N 41°04' W 071°56'0 0.0
2014-Jun-16 04:31N 41°04' W 071°56'0 0.0
2014-Jun-16 03:31N 41°04' W 071°56'0 0.0
2014-Jun-16 02:31N 41°04' W 071°56'0 0.0
2014-Jun-16 01:28N 41°04' W 071°56'0 0.0
2014-Jun-16 00:31N 41°04' W 071°56'0 0.0
2014-Jun-15 23:31N 41°04' W 071°56'0 0.0
2014-Jun-15 22:33N 41°04' W 071°56'4 4.4
2014-Jun-15 21:34N 40°60' W 071°56'1414.2
2014-Jun-15 20:33N 40°50' W 072°10'1414.0
2014-Jun-15 19:34N 40°41' W 072°23'1513.7
2014-Jun-15 18:29N 40°31' W 072°37'1513.6
2014-Jun-15 17:23N 40°21' W 072°52'1313.9
2014-Jun-15 16:29N 40°12' W 073°04'4912.1
2014-Jun-15 12:24N 39°39' W 073°52'  
2014-Jun-12 13:21N 37°00' W 075°54'911.5
2014-Jun-12 12:32N 36°59' W 076°05'1211.7
2014-Jun-12 11:33N 36°58' W 076°20'9 8.6
2014-Jun-12 10:33N 36°50' W 076°18'0 0.0
2014-Jun-12 08:25N 36°50' W 076°18'0 0.0
2014-Jun-12 07:08N 36°50' W 076°18'0 0.0
2014-Jun-12 06:25N 36°50' W 076°18'0 0.0
2014-Jun-12 05:31N 36°50' W 076°18'0 0.0
2014-Jun-12 03:22N 36°50' W 076°18'0 0.0
2014-Jun-12 02:26N 36°50' W 076°18'0 0.0
2014-Jun-12 01:28N 36°50' W 076°18'0 0.0
2014-Jun-12 00:31N 36°50' W 076°18'0 0.0
2014-Jun-11 23:16N 36°50' W 076°18'0 0.0
2014-Jun-11 22:25N 36°50' W 076°18'  
2014-Jun-09 12:15N 34°57' W 076°41'6 8.9
2014-Jun-09 11:33N 34°51' W 076°41'9 8.9
2014-Jun-09 10:33N 34°42' W 076°41'1 0.9
2014-Jun-09 09:33N 34°43' W 076°40'0 0.0
2014-Jun-09 08:33N 34°43' W 076°40'0 0.0
2014-Jun-09 07:33N 34°43' W 076°40'0 0.0
2014-Jun-09 06:33N 34°43' W 076°40'0 0.0
2014-Jun-09 05:33N 34°43' W 076°40'0 0.0
2014-Jun-09 04:33N 34°43' W 076°40'0 0.0
2014-Jun-09 03:33N 34°43' W 076°40'0 0.0
2014-Jun-09 02:33N 34°43' W 076°40'0 0.0
2014-Jun-09 01:33N 34°43' W 076°40'0 0.0
2014-Jun-09 00:33N 34°43' W 076°40'0 0.0
2014-Jun-08 23:33N 34°43' W 076°40'0 0.0
2014-Jun-08 22:33N 34°43' W 076°40'0 0.0
2014-Jun-08 21:33N 34°43' W 076°40'0 0.0
2014-Jun-08 20:30N 34°43' W 076°40'0 0.0
2014-Jun-08 19:33N 34°43' W 076°40'0 0.0
2014-Jun-08 18:33N 34°43' W 076°40'0 0.0
2014-Jun-08 17:33N 34°43' W 076°40'7 7.2
2014-Jun-08 16:33N 34°37' W 076°44'1912.8
2014-Jun-08 15:05N 34°28' W 077°05'813.0
2014-Jun-08 14:27N 34°24' W 077°14'  

Dump ship's entire track history